Time;durP1;ratioP1;P1;durP2;ratioP2;P2;SDS_P1;SDS_P2;PMS_P1;PMS_P2;Temp;Humidity;BMP_temperature;BMP_pressure;BME280_temperature;BME280_humidity;BME280_pressure;Samples;Min_cycle;Max_cycle;Signal;HPM_P1;HPM_P2
2023/11/15 00:02:22;;;;;;;2.58;0.70;;;11.80;99.90;;;;;;4977832;28;20043;-84
2023/11/15 00:04:49;;;;;;;5.85;1.00;;;11.80;99.90;;;;;;4974915;28;20055;-83
2023/11/15 00:07:16;;;;;;;2.90;0.90;;;11.80;99.90;;;;;;4977688;28;20043;-83
2023/11/15 00:09:43;;;;;;;7.13;1.02;;;11.70;99.90;;;;;;4972757;28;20428;-85
2023/11/15 00:12:10;;;;;;;2.38;0.90;;;11.70;99.90;;;;;;4981474;28;20396;-84
2023/11/15 00:14:37;;;;;;;7.30;0.90;;;11.70;99.90;;;;;;4980900;28;20070;-84
2023/11/15 00:17:04;;;;;;;3.40;1.13;;;11.60;99.90;;;;;;4978094;28;20046;-81
2023/11/15 00:19:30;;;;;;;4.93;1.15;;;11.50;99.90;;;;;;4983650;28;20043;-83
2023/11/15 00:21:58;;;;;;;7.85;1.90;;;11.40;99.90;;;;;;4986393;28;20081;-83
2023/11/15 00:24:25;;;;;;;3.15;1.20;;;11.40;99.90;;;;;;4983541;28;20062;-84
2023/11/15 00:26:52;;;;;;;4.65;1.13;;;11.30;99.90;;;;;;4985464;28;20042;-85
2023/11/15 00:29:18;;;;;;;3.03;1.00;;;11.30;99.90;;;;;;4989992;28;20074;-83
2023/11/15 00:31:45;;;;;;;2.30;0.98;;;11.30;99.90;;;;;;4987278;28;20077;-82
2023/11/15 00:34:12;;;;;;;5.13;2.35;;;11.20;99.90;;;;;;4991112;28;20058;-83
2023/11/15 00:36:42;;;;;;;4.78;1.10;;;11.20;99.90;;;;;;4991512;28;20046;-82
2023/11/15 00:39:10;;;;;;;4.57;1.02;;;11.20;99.90;;;;;;4994578;28;20050;-83
2023/11/15 00:41:37;;;;;;;1.77;0.82;;;11.10;99.90;;;;;;4987206;28;20457;-82
2023/11/15 00:44:06;;;;;;;4.57;0.77;;;11.00;99.90;;;;;;4990204;28;20111;-81
2023/11/15 00:46:34;;;;;;;8.02;1.45;;;11.00;99.90;;;;;;4981401;28;20073;-81
2023/11/15 00:49:02;;;;;;;6.28;1.17;;;10.90;99.90;;;;;;4971966;28;20447;-83
2023/11/15 00:51:29;;;;;;;1.38;0.98;;;10.90;99.90;;;;;;4974722;28;20053;-82
2023/11/15 00:53:56;;;;;;;9.30;1.33;;;10.80;99.90;;;;;;4975659;28;20043;-82
2023/11/15 00:56:23;;;;;;;2.78;0.95;;;10.80;99.90;;;;;;4967216;28;20503;-83
2023/11/15 00:58:49;;;;;;;6.40;1.45;;;10.70;99.90;;;;;;4970960;28;20140;-80
2023/11/15 01:01:16;;;;;;;7.80;1.33;;;10.70;99.90;;;;;;4973831;28;20255;-81
2023/11/15 01:03:55;;;;;;;4.97;1.75;;;10.70;99.90;;;;;;4972401;28;20078;-82
2023/11/15 01:06:23;;;;;;;4.82;1.13;;;10.60;99.90;;;;;;4971930;28;20089;-82
2023/11/15 01:08:50;;;;;;;2.75;1.08;;;10.70;99.90;;;;;;4973625;28;20408;-81
2023/11/15 01:11:17;;;;;;;5.43;1.23;;;10.60;99.90;;;;;;4971560;28;20105;-82
2023/11/15 01:13:47;;;;;;;4.40;0.93;;;10.60;99.90;;;;;;4972723;28;20070;-82
2023/11/15 01:16:17;;;;;;;8.20;2.13;;;10.60;99.90;;;;;;4960974;28;20514;-83
2023/11/15 01:18:43;;;;;;;4.70;1.27;;;10.50;99.90;;;;;;4972309;28;20138;-83
2023/11/15 01:21:11;;;;;;;4.47;1.23;;;10.50;99.90;;;;;;4973011;28;20400;-80
2023/11/15 01:23:38;;;;;;;4.15;1.30;;;10.50;99.90;;;;;;4973813;28;20055;-81
2023/11/15 01:26:05;;;;;;;7.50;1.33;;;10.60;99.90;;;;;;4971164;28;20106;-82
2023/11/15 01:28:32;;;;;;;5.20;0.98;;;10.50;99.90;;;;;;4972730;28;20043;-81
2023/11/15 01:30:59;;;;;;;4.28;1.20;;;10.50;99.90;;;;;;4970111;28;20415;-83
2023/11/15 01:33:26;;;;;;;5.22;1.35;;;10.60;99.90;;;;;;4972089;28;20043;-83
2023/11/15 01:35:53;;;;;;;3.80;1.10;;;10.60;99.90;;;;;;4982526;28;20045;-81
2023/11/15 01:38:20;;;;;;;3.10;1.08;;;10.60;99.90;;;;;;4972312;28;20507;-81
2023/11/15 01:40:48;;;;;;;10.25;1.27;;;10.60;99.90;;;;;;4973876;28;20046;-84
2023/11/15 01:43:16;;;;;;;4.93;1.25;;;10.60;99.90;;;;;;4992119;28;20050;-81
2023/11/15 01:45:50;;;;;;;7.32;1.15;;;10.50;99.90;;;;;;4982186;28;20106;-82
2023/11/15 01:48:17;;;;;;;6.18;1.15;;;10.50;99.90;;;;;;4989586;28;20062;-83
2023/11/15 01:50:46;;;;;;;4.03;0.90;;;10.50;99.90;;;;;;4986690;28;20133;-84
2023/11/15 01:53:14;;;;;;;3.85;0.85;;;10.50;99.90;;;;;;4984751;28;20048;-80
2023/11/15 01:55:42;;;;;;;2.95;1.02;;;10.50;99.90;;;;;;4975674;28;20054;-82
2023/11/15 01:58:10;;;;;;;5.68;0.98;;;10.40;99.90;;;;;;4972509;28;20515;-83
2023/11/15 02:00:36;;;;;;;6.55;1.60;;;10.40;99.90;;;;;;4962964;28;20042;-83
2023/11/15 02:03:03;;;;;;;9.18;1.25;;;10.40;99.90;;;;;;4981805;28;20440;-82
2023/11/15 02:05:30;;;;;;;5.32;1.00;;;10.40;99.90;;;;;;4973821;28;20106;-81
2023/11/15 02:07:57;;;;;;;5.32;1.33;;;10.40;99.90;;;;;;4972459;28;20134;-81
2023/11/15 02:10:24;;;;;;;4.45;1.08;;;10.40;99.90;;;;;;4971133;28;20070;-83
2023/11/15 02:12:51;;;;;;;5.22;0.93;;;10.40;99.90;;;;;;4970684;28;20082;-80
2023/11/15 02:15:21;;;;;;;9.20;1.20;;;10.40;99.90;;;;;;4968419;28;20482;-83
2023/11/15 02:17:48;;;;;;;5.70;1.00;;;10.40;99.90;;;;;;4975141;28;20046;-84
2023/11/15 02:20:16;;;;;;;5.60;1.27;;;10.40;99.90;;;;;;4974368;28;20051;-83
2023/11/15 02:22:50;;;;;;;5.65;1.10;;;10.50;99.90;;;;;;4980533;28;20047;-81
2023/11/15 02:25:18;;;;;;;6.60;1.25;;;10.50;99.90;;;;;;4972143;28;20054;-82
2023/11/15 02:27:45;;;;;;;5.45;1.40;;;10.50;99.90;;;;;;4969691;28;20055;-81
2023/11/15 02:30:12;;;;;;;7.40;1.70;;;10.60;99.90;;;;;;4973930;28;20510;-80
2023/11/15 02:32:41;;;;;;;6.00;0.88;;;10.60;99.90;;;;;;4980719;28;20053;-84
2023/11/15 02:35:08;;;;;;;4.88;1.13;;;10.60;99.90;;;;;;4981938;28;20486;-80
2023/11/15 02:37:35;;;;;;;6.68;1.20;;;10.70;99.90;;;;;;4970106;28;20134;-82
2023/11/15 02:40:09;;;;;;;7.93;1.35;;;10.70;99.90;;;;;;4970565;28;20299;-81
2023/11/15 02:42:36;;;;;;;10.80;1.13;;;10.70;99.90;;;;;;4966406;28;20074;-80
2023/11/15 02:45:03;;;;;;;6.18;1.35;;;10.70;99.90;;;;;;4973947;28;20050;-82
2023/11/15 02:47:30;;;;;;;3.97;1.13;;;10.80;99.90;;;;;;4975703;28;20065;-82
2023/11/15 02:49:57;;;;;;;4.97;1.10;;;10.80;99.90;;;;;;4971808;28;20097;-82
2023/11/15 02:52:24;;;;;;;7.20;1.85;;;10.90;99.90;;;;;;4973260;28;20074;-82
2023/11/15 02:54:51;;;;;;;2.35;0.88;;;10.90;99.90;;;;;;4971186;28;20047;-82
2023/11/15 02:57:18;;;;;;;6.82;1.48;;;10.90;99.90;;;;;;4968408;28;20051;-80
2023/11/15 02:59:45;;;;;;;10.43;1.70;;;10.90;99.90;;;;;;4971356;28;20047;-80
2023/11/15 03:02:11;;;;;;;8.13;2.35;;;11.00;99.90;;;;;;4972607;28;20052;-83
2023/11/15 03:04:39;;;;;;;7.78;1.38;;;11.00;99.90;;;;;;4973573;28;20094;-81
2023/11/15 03:07:05;;;;;;;6.47;1.48;;;11.00;99.90;;;;;;4968628;28;20137;-83
2023/11/15 03:09:33;;;;;;;2.92;0.70;;;11.00;99.90;;;;;;4970016;28;20042;-81
2023/11/15 03:11:59;;;;;;;7.15;1.95;;;11.00;99.90;;;;;;4970972;28;20078;-84
2023/11/15 03:14:27;;;;;;;4.15;1.20;;;11.00;99.90;;;;;;4970867;28;20038;-81
2023/11/15 03:16:54;;;;;;;7.45;1.13;;;11.00;99.90;;;;;;4976778;28;20054;-81
2023/11/15 03:19:20;;;;;;;3.55;0.98;;;11.00;99.90;;;;;;4975985;28;20065;-81
2023/11/15 03:21:47;;;;;;;11.48;1.13;;;11.00;99.90;;;;;;4971533;28;20110;-83
2023/11/15 03:24:14;;;;;;;5.38;1.10;;;11.10;99.90;;;;;;4972434;28;20531;-83
2023/11/15 03:26:41;;;;;;;3.13;0.95;;;11.00;99.90;;;;;;4972378;28;20050;-83
2023/11/15 03:29:08;;;;;;;3.85;1.00;;;11.00;99.90;;;;;;4975298;28;20046;-83
2023/11/15 03:31:35;;;;;;;1.67;0.70;;;11.00;99.90;;;;;;4991993;28;20042;-83
2023/11/15 03:34:01;;;;;;;4.07;0.82;;;10.90;99.90;;;;;;4976344;28;20043;-82
2023/11/15 03:36:28;;;;;;;4.32;1.13;;;10.90;99.90;;;;;;4976788;28;20400;-82
2023/11/15 03:38:55;;;;;;;3.97;0.90;;;10.90;99.90;;;;;;4972529;28;20043;-80
2023/11/15 03:41:22;;;;;;;6.97;1.23;;;10.90;99.90;;;;;;4975236;28;20491;-81
2023/11/15 03:43:50;;;;;;;2.47;0.73;;;10.90;99.90;;;;;;4975287;28;20046;-84
2023/11/15 03:46:17;;;;;;;4.03;0.80;;;10.90;99.90;;;;;;4974140;28;20117;-82
2023/11/15 03:48:44;;;;;;;7.88;1.30;;;10.90;99.90;;;;;;4972803;28;20419;-81
2023/11/15 03:51:11;;;;;;;8.38;1.83;;;10.90;99.90;;;;;;4970593;28;20047;-82
2023/11/15 03:53:38;;;;;;;4.25;1.25;;;10.90;99.90;;;;;;4971399;28;20388;-81
2023/11/15 03:56:06;;;;;;;5.90;1.02;;;10.90;99.90;;;;;;4971673;28;20046;-82
2023/11/15 03:58:32;;;;;;;3.25;1.00;;;10.90;99.90;;;;;;4972583;28;20110;-84
2023/11/15 04:01:00;;;;;;;6.95;1.20;;;10.90;99.90;;;;;;4968138;28;20070;-85
2023/11/15 04:03:27;;;;;;;7.22;1.30;;;10.90;99.90;;;;;;4974387;28;20054;-83
2023/11/15 04:05:54;;;;;;;4.47;0.90;;;10.90;99.90;;;;;;4975850;28;20158;-81
2023/11/15 04:08:21;;;;;;;3.63;0.90;;;10.90;99.90;;;;;;4975343;28;20062;-82
2023/11/15 04:10:48;;;;;;;4.22;1.10;;;10.90;99.90;;;;;;4975954;28;20050;-83
2023/11/15 04:13:17;;;;;;;9.82;1.30;;;10.90;99.90;;;;;;4982569;28;20054;-81
2023/11/15 04:15:44;;;;;;;6.35;1.77;;;10.90;99.90;;;;;;4981699;28;20042;-84
2023/11/15 04:18:10;;;;;;;7.80;1.92;;;10.90;99.90;;;;;;4981472;28;20069;-84
2023/11/15 04:20:37;;;;;;;4.55;1.02;;;10.90;99.90;;;;;;4981616;28;20395;-82
2023/11/15 04:23:04;;;;;;;7.20;1.27;;;10.90;99.90;;;;;;4978060;28;20047;-81
2023/11/15 04:25:31;;;;;;;7.82;1.50;;;10.90;99.90;;;;;;4974353;28;20047;-83
2023/11/15 04:27:58;;;;;;;6.78;1.30;;;10.90;99.90;;;;;;4985896;28;20042;-83
2023/11/15 04:30:27;;;;;;;2.50;0.93;;;10.90;99.90;;;;;;4986834;28;20434;-83
2023/11/15 04:32:54;;;;;;;3.17;0.90;;;10.90;99.90;;;;;;4981948;28;20042;-82
2023/11/15 04:35:21;;;;;;;6.35;2.25;;;10.90;99.90;;;;;;4979911;28;20165;-84
2023/11/15 04:37:48;;;;;;;3.55;1.30;;;10.90;99.90;;;;;;4979309;28;20043;-83
2023/11/15 04:40:15;;;;;;;5.57;0.80;;;10.90;99.90;;;;;;4985376;28;20047;-83
2023/11/15 04:42:42;;;;;;;7.97;1.23;;;10.90;99.90;;;;;;4988471;28;20047;-81
2023/11/15 04:45:09;;;;;;;2.53;0.80;;;10.90;99.90;;;;;;4977233;28;20047;-80
2023/11/15 04:47:36;;;;;;;5.55;0.63;;;10.90;99.90;;;;;;4980570;28;20049;-82
2023/11/15 04:50:04;;;;;;;3.63;0.80;;;10.90;99.90;;;;;;4976719;28;20051;-81
2023/11/15 04:52:31;;;;;;;2.83;0.68;;;10.90;99.90;;;;;;4980442;28;20270;-83
2023/11/15 04:54:57;;;;;;;1.90;0.80;;;10.90;99.90;;;;;;4982689;28;20039;-84
2023/11/15 04:57:25;;;;;;;4.03;0.80;;;11.00;99.90;;;;;;4980174;28;20047;-82
2023/11/15 04:59:55;;;;;;;3.03;1.25;;;11.00;99.90;;;;;;4974484;28;20532;-81
2023/11/15 05:02:22;;;;;;;4.07;0.93;;;11.00;99.90;;;;;;4979863;28;20047;-84
2023/11/15 05:04:49;;;;;;;3.78;1.10;;;11.00;99.90;;;;;;4980645;28;20394;-81
2023/11/15 05:07:20;;;;;;;5.93;1.05;;;11.00;99.90;;;;;;4986154;28;20134;-82
2023/11/15 05:09:46;;;;;;;3.22;0.80;;;11.00;99.90;;;;;;4988151;28;20050;-80
2023/11/15 05:12:15;;;;;;;7.40;1.10;;;11.00;99.90;;;;;;4983770;28;20106;-81
2023/11/15 05:14:43;;;;;;;6.97;1.38;;;11.00;99.90;;;;;;4984051;28;20580;-83
2023/11/15 05:17:09;;;;;;;3.53;1.00;;;11.00;99.90;;;;;;4984140;28;20055;-82
2023/11/15 05:19:36;;;;;;;7.07;1.00;;;11.00;99.90;;;;;;4980085;28;20043;-83
2023/11/15 05:22:04;;;;;;;8.50;1.20;;;11.00;99.90;;;;;;4977236;28;20500;-81
2023/11/15 05:24:31;;;;;;;5.47;1.33;;;11.00;99.90;;;;;;4981391;28;20050;-84
2023/11/15 05:26:58;;;;;;;9.45;1.95;;;11.00;99.90;;;;;;4982779;28;20047;-82
2023/11/15 05:29:25;;;;;;;6.00;1.08;;;11.00;99.90;;;;;;4985632;28;20082;-82
2023/11/15 05:31:52;;;;;;;11.10;1.52;;;11.00;99.90;;;;;;4979983;28;20411;-80
2023/11/15 05:34:19;;;;;;;5.70;2.20;;;11.00;99.90;;;;;;4978663;28;20554;-84
2023/11/15 05:36:45;;;;;;;7.57;1.75;;;11.00;99.90;;;;;;4985875;28;20047;-84
2023/11/15 05:39:12;;;;;;;7.88;1.25;;;11.00;99.90;;;;;;4986516;28;20079;-82
2023/11/15 05:41:39;;;;;;;7.78;1.42;;;11.00;99.90;;;;;;4979634;28;20062;-83
2023/11/15 05:44:06;;;;;;;3.53;1.20;;;11.00;99.90;;;;;;4984816;28;20085;-81
2023/11/15 05:46:36;;;;;;;8.38;1.70;;;11.00;99.90;;;;;;4989623;28;20121;-84
2023/11/15 05:49:03;;;;;;;9.52;1.95;;;11.00;99.90;;;;;;4973963;28;20042;-80
2023/11/15 05:51:30;;;;;;;18.05;1.63;;;11.00;99.90;;;;;;4974398;28;20079;-79
2023/11/15 05:53:57;;;;;;;9.25;1.60;;;11.00;99.90;;;;;;4970238;28;20062;-81
2023/11/15 05:56:24;;;;;;;8.23;1.65;;;10.90;99.90;;;;;;4979936;28;20077;-78
2023/11/15 05:58:50;;;;;;;6.65;1.90;;;10.90;99.90;;;;;;4979780;28;20074;-79
2023/11/15 06:01:17;;;;;;;10.75;2.25;;;10.90;99.90;;;;;;4983666;28;20050;-80
2023/11/15 06:03:46;;;;;;;11.68;2.05;;;10.90;99.90;;;;;;4979626;28;20392;-80
2023/11/15 06:06:13;;;;;;;5.18;1.63;;;10.90;99.90;;;;;;4987483;28;20061;-80
2023/11/15 06:08:39;;;;;;;5.65;2.08;;;10.90;99.90;;;;;;4982680;28;20042;-82
2023/11/15 06:11:06;;;;;;;6.75;1.60;;;10.90;99.90;;;;;;4979346;28;20054;-81
2023/11/15 06:13:38;;;;;;;6.72;1.80;;;10.80;99.90;;;;;;4983194;28;20101;-82
2023/11/15 06:16:06;;;;;;;7.22;1.80;;;10.80;99.90;;;;;;4978984;28;20097;-83
2023/11/15 06:18:33;;;;;;;5.65;1.45;;;10.80;99.90;;;;;;4974229;28;20046;-85
2023/11/15 06:20:59;;;;;;;9.75;1.42;;;10.80;99.90;;;;;;4986391;28;20051;-84
2023/11/15 06:23:26;;;;;;;11.88;2.13;;;10.80;99.90;;;;;;4983477;28;20051;-82
2023/11/15 06:25:53;;;;;;;7.47;2.10;;;10.70;99.90;;;;;;4977314;28;20055;-82
2023/11/15 06:28:20;;;;;;;6.18;1.40;;;10.70;99.90;;;;;;4983007;28;20047;-80
2023/11/15 06:30:48;;;;;;;5.55;1.50;;;10.70;99.90;;;;;;4979411;28;20047;-82
2023/11/15 06:33:15;;;;;;;10.57;1.83;;;10.70;99.90;;;;;;4980818;28;20057;-83
2023/11/15 06:35:44;;;;;;;8.18;1.52;;;10.70;99.90;;;;;;4987733;28;20043;-82
2023/11/15 06:38:11;;;;;;;8.07;1.60;;;10.70;99.90;;;;;;4986176;28;20663;-82
2023/11/15 06:40:38;;;;;;;10.32;2.03;;;10.70;99.90;;;;;;4998352;28;20042;-83
2023/11/15 06:43:06;;;;;;;8.57;1.75;;;10.70;99.90;;;;;;4979333;28;20074;-82
2023/11/15 06:45:32;;;;;;;10.10;1.67;;;10.70;99.90;;;;;;4977950;28;20078;-81
2023/11/15 06:48:00;;;;;;;10.15;2.00;;;10.80;99.90;;;;;;4983273;28;20078;-83
2023/11/15 06:50:28;;;;;;;9.23;1.63;;;10.80;99.90;;;;;;4981570;28;20045;-83
2023/11/15 06:52:55;;;;;;;9.10;1.67;;;10.80;99.90;;;;;;4980943;28;20054;-81
2023/11/15 06:55:22;;;;;;;8.30;1.80;;;10.80;99.90;;;;;;4989385;28;20051;-80
2023/11/15 06:57:49;;;;;;;9.00;2.20;;;10.80;99.90;;;;;;4977983;28;20078;-81
2023/11/15 07:00:16;;;;;;;10.85;1.60;;;10.80;99.90;;;;;;4981032;28;20091;-82
2023/11/15 07:02:42;;;;;;;6.95;1.58;;;10.80;99.90;;;;;;4983072;28;20050;-82
2023/11/15 07:05:13;;;;;;;6.05;1.75;;;10.80;99.90;;;;;;4983185;28;20134;-80
2023/11/15 07:07:40;;;;;;;;;;;10.90;99.90;;;;;;4998139;28;20049;-82
2023/11/15 07:10:07;;;;;;;7.88;2.83;;;10.90;99.90;;;;;;4979320;28;19969;-82
2023/11/15 07:12:35;;;;;;;9.68;1.63;;;10.90;99.90;;;;;;4976470;28;20047;-83
2023/11/15 07:15:04;;;;;;;7.95;1.60;;;10.90;99.90;;;;;;4972673;28;20082;-83
2023/11/15 07:17:31;;;;;;;13.10;1.75;;;10.90;99.90;;;;;;4987487;28;20078;-82
2023/11/15 07:19:58;;;;;;;7.63;1.40;;;10.90;99.90;;;;;;4989405;28;20056;-83
2023/11/15 07:22:25;;;;;;;9.82;1.92;;;11.00;99.90;;;;;;4984340;28;20058;-83
2023/11/15 07:24:52;;;;;;;12.02;3.50;;;11.00;99.90;;;;;;4984310;28;20047;-82
2023/11/15 07:27:19;;;;;;;8.93;1.65;;;11.00;99.90;;;;;;4976739;28;20071;-82
2023/11/15 07:29:46;;;;;;;5.68;1.73;;;11.00;99.90;;;;;;4980230;28;20051;-82
2023/11/15 07:32:13;;;;;;;7.72;1.88;;;11.00;99.90;;;;;;4977058;28;20565;-80
2023/11/15 07:34:40;;;;;;;12.13;2.00;;;11.00;99.90;;;;;;4977093;28;20512;-80
2023/11/15 07:37:08;;;;;;;8.60;1.73;;;11.00;99.90;;;;;;4983423;28;20043;-80
2023/11/15 07:39:34;;;;;;;10.32;2.00;;;11.00;99.90;;;;;;4973632;28;20055;-81
2023/11/15 07:42:01;;;;;;;10.18;1.70;;;11.00;99.90;;;;;;4976339;28;20626;-81
2023/11/15 07:44:30;;;;;;;10.90;2.22;;;11.00;99.90;;;;;;4978468;28;20411;-81
2023/11/15 07:46:58;;;;;;;9.35;2.95;;;10.90;99.90;;;;;;4987643;28;20049;-80
2023/11/15 07:49:26;;;;;;;8.18;1.88;;;10.90;99.90;;;;;;4986340;28;20048;-81
2023/11/15 07:51:53;;;;;;;6.60;2.05;;;10.90;99.90;;;;;;4981863;28;20042;-83
2023/11/15 07:54:21;;;;;;;11.73;1.90;;;10.90;99.90;;;;;;4978761;28;20054;-81
2023/11/15 07:56:48;;;;;;;6.47;2.08;;;10.80;99.90;;;;;;4974856;28;20043;-84
2023/11/15 07:59:14;;;;;;;13.10;2.13;;;10.80;99.90;;;;;;4984271;28;20442;-83
2023/11/15 08:01:42;;;;;;;9.38;2.38;;;10.80;99.90;;;;;;4986095;28;20109;-81
2023/11/15 08:04:14;;;;;;;11.27;2.13;;;10.80;99.90;;;;;;4980479;28;20050;-82
2023/11/15 08:06:42;;;;;;;10.05;1.70;;;10.80;99.90;;;;;;4981308;28;20075;-82
2023/11/15 08:09:23;;;;;;;12.90;2.33;;;10.80;99.90;;;;;;4977890;28;20134;-82
2023/11/15 08:11:55;;;;;;;9.73;1.95;;;10.80;99.90;;;;;;4976249;28;20077;-82
2023/11/15 08:14:22;;;;;;;7.88;1.50;;;10.90;99.90;;;;;;4983493;28;20070;-82
2023/11/15 08:16:50;;;;;;;8.95;1.83;;;10.90;99.90;;;;;;4985936;28;20070;-82
2023/11/15 08:19:18;;;;;;;9.05;1.73;;;10.90;99.90;;;;;;4984849;28;20047;-82
2023/11/15 08:21:47;;;;;;;12.38;2.30;;;11.00;99.90;;;;;;4983056;28;20054;-82
2023/11/15 08:24:20;;;;;;;9.35;2.10;;;11.00;99.90;;;;;;4982246;28;20078;-82
2023/11/15 08:26:53;;;;;;;12.07;2.28;;;11.00;99.90;;;;;;4978722;28;20561;-82
2023/11/15 08:29:21;;;;;;;12.27;2.80;;;11.00;99.90;;;;;;4984393;28;20057;-82
2023/11/15 08:31:48;;;;;;;15.35;1.70;;;11.00;99.90;;;;;;4987080;28;20050;-82
2023/11/15 08:34:15;;;;;;;10.63;1.80;;;11.10;99.90;;;;;;4980849;28;20050;-83
2023/11/15 08:36:45;;;;;;;10.20;1.77;;;11.10;99.90;;;;;;4981781;28;20102;-81
2023/11/15 08:39:12;;;;;;;7.82;1.52;;;11.10;99.90;;;;;;4977968;28;20059;-81
2023/11/15 08:41:43;;;;;;;12.43;1.90;;;11.10;99.90;;;;;;4985789;28;20061;-82
2023/11/15 08:44:10;;;;;;;7.63;1.77;;;11.10;99.90;;;;;;4989958;28;20082;-82
2023/11/15 08:46:44;;;;;;;6.38;1.58;;;11.10;99.90;;;;;;4987086;28;20566;-82
2023/11/15 08:49:12;;;;;;;9.90;2.42;;;11.20;99.90;;;;;;4982293;28;20051;-82
2023/11/15 08:51:40;;;;;;;8.02;1.98;;;11.20;99.90;;;;;;4980998;28;20143;-82
2023/11/15 08:54:09;;;;;;;10.80;1.92;;;11.30;99.90;;;;;;4977744;28;20110;-81
2023/11/15 08:56:42;;;;;;;9.63;1.80;;;11.40;99.90;;;;;;4983452;28;20051;-82
2023/11/15 08:59:13;;;;;;;11.07;2.47;;;11.40;99.90;;;;;;4990635;28;20065;-82
2023/11/15 09:01:42;;;;;;;10.57;1.67;;;11.40;99.90;;;;;;4986448;28;20115;-81
2023/11/15 09:04:12;;;;;;;10.63;1.73;;;11.50;99.90;;;;;;4982039;28;20106;-80
2023/11/15 09:06:41;;;;;;;8.13;1.55;;;11.50;99.90;;;;;;4981800;28;20052;-82
2023/11/15 09:09:08;;;;;;;13.25;1.65;;;11.50;99.90;;;;;;4977095;28;20043;-81
2023/11/15 09:11:35;;;;;;;12.13;2.58;;;11.50;99.90;;;;;;4988751;28;20043;-82
2023/11/15 09:14:02;;;;;;;11.15;2.05;;;11.50;99.90;;;;;;4989286;28;20046;-83
2023/11/15 09:16:29;;;;;;;7.68;1.55;;;11.40;99.90;;;;;;4989748;28;20050;-82
2023/11/15 09:18:59;;;;;;;9.23;1.40;;;11.40;99.90;;;;;;4986267;28;20053;-81
2023/11/15 09:21:26;;;;;;;7.05;1.95;;;11.40;99.90;;;;;;4980349;28;20055;-82
2023/11/15 09:23:52;;;;;;;11.45;2.47;;;11.50;99.90;;;;;;4983190;28;20120;-83
2023/11/15 09:26:20;;;;;;;8.63;1.70;;;11.50;99.90;;;;;;4993926;28;20050;-82
2023/11/15 09:28:48;;;;;;;11.00;2.33;;;11.50;99.90;;;;;;4991179;28;20051;-80
2023/11/15 09:31:15;;;;;;;8.77;1.80;;;11.60;99.90;;;;;;4986343;28;20058;-81
2023/11/15 09:33:43;;;;;;;9.07;1.98;;;11.60;99.90;;;;;;4981226;28;20066;-82
2023/11/15 09:36:11;;;;;;;7.82;1.88;;;11.60;99.90;;;;;;4979144;28;20047;-80
2023/11/15 09:38:41;;;;;;;8.55;1.73;;;11.60;99.90;;;;;;4984868;28;20066;-81
2023/11/15 09:41:17;;;;;;;11.45;1.67;;;11.60;99.90;;;;;;4992906;28;20417;-82
2023/11/15 09:43:51;;;;;;;10.10;2.05;;;11.70;99.90;;;;;;4988648;28;20067;-81
2023/11/15 09:46:18;;;;;;;7.70;2.00;;;11.60;99.90;;;;;;4982853;28;20198;-82
2023/11/15 09:48:45;;;;;;;10.38;2.03;;;11.70;99.90;;;;;;4981599;28;20137;-81
2023/11/15 09:51:29;;;;;;;6.78;1.85;;;11.70;99.90;;;;;;4977914;28;20082;-83
2023/11/15 09:53:56;;;;;;;8.77;1.92;;;11.70;99.90;;;;;;4988372;28;20469;-81
2023/11/15 09:56:40;;;;;;;5.05;1.75;;;11.80;99.90;;;;;;4989323;28;20051;-83
2023/11/15 09:59:08;;;;;;;8.52;1.60;;;11.80;99.90;;;;;;4988387;28;20057;-82
2023/11/15 10:01:50;;;;;;;5.40;1.65;;;11.90;99.90;;;;;;4982788;28;20439;-82
2023/11/15 10:04:27;;;;;;;11.90;2.72;;;12.00;99.90;;;;;;4980167;28;20051;-82
2023/11/15 10:07:01;;;;;;;7.15;1.45;;;12.10;99.90;;;;;;4979328;28;20054;-82
2023/11/15 10:09:42;;;;;;;7.82;1.42;;;12.10;99.90;;;;;;4989035;28;20047;-82
2023/11/15 10:12:10;;;;;;;7.03;1.52;;;12.20;99.90;;;;;;4988207;28;20042;-82
2023/11/15 10:14:52;;;;;;;10.20;1.38;;;12.20;99.90;;;;;;4986366;28;20047;-82
2023/11/15 10:17:36;;;;;;;8.00;1.70;;;12.20;99.90;;;;;;4982002;28;20046;-82
2023/11/15 10:20:25;;;;;;;7.63;1.85;;;12.20;99.90;;;;;;4981374;28;20070;-81
2023/11/15 10:22:53;;;;;;;9.50;2.50;;;12.20;99.90;;;;;;4998841;28;20058;-81
2023/11/15 10:25:20;;;;;;;9.15;1.77;;;12.20;99.90;;;;;;4993908;28;20058;-81
2023/11/15 10:27:50;;;;;;;9.18;2.10;;;12.10;99.90;;;;;;4989500;28;20047;-82
2023/11/15 10:30:20;;;;;;;8.52;1.70;;;12.10;99.90;;;;;;4983751;28;20054;-80
2023/11/15 10:32:47;;;;;;;4.80;1.42;;;12.10;99.90;;;;;;4981991;28;20557;-82
2023/11/15 10:35:31;;;;;;;9.48;1.55;;;12.20;99.90;;;;;;4983749;28;20073;-82
2023/11/15 10:37:58;;;;;;;6.50;1.55;;;12.20;99.90;;;;;;4995095;28;20407;-83
2023/11/15 10:40:30;;;;;;;6.82;2.05;;;12.30;99.90;;;;;;4989149;28;20081;-82
2023/11/15 10:42:58;;;;;;;9.23;2.17;;;12.30;99.90;;;;;;4987896;28;20073;-81
2023/11/15 10:45:30;;;;;;;7.63;1.70;;;12.40;99.90;;;;;;4981769;28;20081;-81
2023/11/15 10:48:03;;;;;;;7.22;1.33;;;12.40;99.90;;;;;;4980823;28;20051;-82
2023/11/15 10:50:33;;;;;;;3.80;1.40;;;12.50;99.90;;;;;;4982333;28;20134;-82
2023/11/15 10:53:02;;;;;;;5.32;1.55;;;12.50;99.90;;;;;;4991292;28;20043;-82
2023/11/15 10:55:31;;;;;;;4.40;0.95;;;12.50;99.90;;;;;;4987547;28;20129;-83
2023/11/15 10:58:02;;;;;;;7.50;1.27;;;12.50;99.90;;;;;;4985926;28;20050;-82
2023/11/15 11:00:30;;;;;;;3.42;1.00;;;12.50;99.90;;;;;;4983845;28;20054;-83
2023/11/15 11:02:59;;;;;;;4.03;1.00;;;12.50;99.90;;;;;;4978949;28;20058;-81
2023/11/15 11:05:40;;;;;;;6.63;1.10;;;12.60;99.90;;;;;;4987663;28;20408;-80
2023/11/15 11:08:22;;;;;;;4.72;1.15;;;12.60;99.90;;;;;;5005784;28;20054;-83
2023/11/15 11:11:09;;;;;;;6.88;1.13;;;12.60;99.90;;;;;;4986729;28;20332;-81
2023/11/15 11:13:40;;;;;;;5.65;0.95;;;12.60;99.90;;;;;;4982352;28;20051;-82
2023/11/15 11:16:30;;;;;;;6.90;1.20;;;12.70;99.90;;;;;;4979445;28;20051;-82
2023/11/15 11:19:22;;;;;;;7.47;1.17;;;12.70;99.90;;;;;;4990368;28;20526;-82
2023/11/15 11:22:17;;;;;;;9.68;1.30;;;12.70;99.90;;;;;;4989569;28;20062;-81
2023/11/15 11:25:10;;;;;;;4.15;1.20;;;12.80;99.90;;;;;;4984638;28;20051;-82
2023/11/15 11:27:38;;;;;;;4.40;1.20;;;12.80;99.90;;;;;;4976843;28;20065;-79
2023/11/15 11:30:11;;;;;;;5.95;1.58;;;12.90;99.90;;;;;;4978604;28;20498;-81
2023/11/15 11:32:44;;;;;;;6.75;1.10;;;12.90;99.90;;;;;;4970929;28;20098;-82
2023/11/15 11:35:13;;;;;;;5.05;1.25;;;12.90;99.90;;;;;;4986050;28;20050;-82
2023/11/15 11:37:50;;;;;;;4.95;1.27;;;13.00;99.90;;;;;;4982179;28;20042;-82
2023/11/15 11:40:19;;;;;;;5.18;1.25;;;13.00;99.90;;;;;;4982359;28;20051;-80
2023/11/15 11:42:48;;;;;;;7.07;1.23;;;13.00;99.90;;;;;;4978030;28;20137;-82
2023/11/15 11:45:15;;;;;;;6.18;1.83;;;13.00;99.90;;;;;;4985298;28;20050;-82
2023/11/15 11:47:46;;;;;;;7.18;1.77;;;13.00;99.90;;;;;;4988963;28;20051;-81
2023/11/15 11:50:17;;;;;;;6.07;1.45;;;13.00;99.90;;;;;;4984027;28;20088;-82
2023/11/15 11:52:44;;;;;;;8.05;1.42;;;12.90;99.90;;;;;;4985509;28;20046;-81
2023/11/15 11:55:11;;;;;;;3.78;1.38;;;12.90;99.90;;;;;;4994097;28;20046;-83
2023/11/15 11:57:41;;;;;;;5.60;1.10;;;12.80;99.90;;;;;;4981663;28;20044;-82
2023/11/15 12:00:15;;;;;;;5.72;1.38;;;12.80;99.90;;;;;;4981478;28;20051;-81
2023/11/15 12:02:53;;;;;;;2.83;1.02;;;12.80;99.90;;;;;;4984371;28;20516;-82
2023/11/15 12:05:30;;;;;;;9.40;1.50;;;12.80;99.90;;;;;;4995337;28;20054;-81
2023/11/15 12:07:57;;;;;;;4.90;1.10;;;12.80;99.90;;;;;;4989164;28;20134;-81
2023/11/15 12:10:24;;;;;;;4.85;1.20;;;12.90;99.90;;;;;;4990264;28;20050;-83
2023/11/15 12:12:57;;;;;;;6.15;1.20;;;12.90;99.90;;;;;;4990486;28;20051;-82
2023/11/15 12:15:27;;;;;;;7.55;1.10;;;12.90;99.90;;;;;;4988896;28;20042;-82
2023/11/15 12:17:59;;;;;;;7.07;1.45;;;12.90;99.90;;;;;;4989074;28;20047;-81
2023/11/15 12:20:30;;;;;;;5.70;1.30;;;12.90;99.90;;;;;;4988211;28;20046;-82
2023/11/15 12:23:05;;;;;;;8.45;1.08;;;12.90;99.90;;;;;;4996392;28;20054;-82
2023/11/15 12:25:41;;;;;;;3.63;1.52;;;12.90;99.90;;;;;;4987252;28;20080;-82
2023/11/15 12:28:09;;;;;;;3.47;0.93;;;12.90;99.90;;;;;;4984397;28;20050;-81
2023/11/15 12:30:36;;;;;;;6.47;1.42;;;12.90;99.90;;;;;;4997624;28;20058;-82
2023/11/15 12:33:03;;;;;;;6.60;1.00;;;12.90;99.90;;;;;;4991936;28;20268;-83
2023/11/15 12:35:31;;;;;;;6.20;1.75;;;12.90;99.90;;;;;;4996281;28;20078;-81
2023/11/15 12:38:05;;;;;;;3.97;1.15;;;13.00;99.90;;;;;;4992280;28;20054;-83
2023/11/15 12:40:36;;;;;;;5.90;1.30;;;13.00;99.90;;;;;;4987745;28;20051;-82
2023/11/15 12:43:25;;;;;;;7.38;1.70;;;13.00;99.90;;;;;;4998111;28;20068;-81
2023/11/15 12:45:53;;;;;;;4.63;1.63;;;13.00;99.90;;;;;;4991684;28;20051;-82
2023/11/15 12:48:20;;;;;;;4.72;1.23;;;13.00;99.90;;;;;;4994081;28;20054;-82
2023/11/15 12:50:47;;;;;;;6.30;1.10;;;12.90;99.90;;;;;;4995737;28;20042;-83
2023/11/15 12:53:18;;;;;;;8.05;1.55;;;12.90;99.90;;;;;;5006901;28;20081;-82
2023/11/15 12:55:52;;;;;;;8.00;2.17;;;12.90;99.90;;;;;;4991124;28;20053;-82